Time;durP1;ratioP1;P1;durP2;ratioP2;P2;SDS_P1;SDS_P2;PMS_P1;PMS_P2;Temp;Humidity;BMP_temperature;BMP_pressure;BME280_temperature;BME280_humidity;BME280_pressure;Samples;Min_cycle;Max_cycle;Signal;HPM_P1;HPM_P2
2021/09/22 00:02:19;;;;;;;9.90;8.30;;;10.40;96.30;;;;;;4986753;28;20133;-79
2021/09/22 00:04:45;;;;;;;9.43;7.82;;;10.30;96.50;;;;;;4989149;28;20026;-79
2021/09/22 00:07:11;;;;;;;9.52;7.70;;;10.30;96.70;;;;;;5008961;28;20026;-79
2021/09/22 00:09:36;;;;;;;9.00;7.20;;;10.30;96.90;;;;;;5010624;28;20110;-79
2021/09/22 00:12:03;;;;;;;10.40;7.78;;;10.30;97.10;;;;;;4989423;28;20126;-80
2021/09/22 00:14:28;;;;;;;8.45;7.57;;;10.30;97.30;;;;;;4989725;28;20049;-79
2021/09/22 00:16:54;;;;;;;9.65;7.88;;;10.30;97.50;;;;;;4990328;28;20027;-77
2021/09/22 00:19:20;;;;;;;9.55;7.95;;;10.30;97.70;;;;;;4986574;28;20034;-79
2021/09/22 00:21:46;;;;;;;10.85;7.97;;;10.30;97.90;;;;;;4967739;28;20026;-78
2021/09/22 00:24:11;;;;;;;10.32;8.23;;;10.30;97.90;;;;;;4999875;28;20065;-79
2021/09/22 00:26:37;;;;;;;10.30;7.45;;;10.40;98.00;;;;;;4988984;28;20102;-79
2021/09/22 00:29:03;;;;;;;8.45;7.55;;;10.40;98.10;;;;;;4994494;28;20026;-79
2021/09/22 00:31:29;;;;;;;9.15;7.85;;;10.40;98.10;;;;;;4990045;28;20037;-79
2021/09/22 00:33:55;;;;;;;9.02;7.80;;;10.40;98.20;;;;;;5003276;28;20041;-79
2021/09/22 00:36:20;;;;;;;9.25;7.60;;;10.40;98.20;;;;;;5010442;28;20034;-79
2021/09/22 00:38:46;;;;;;;7.28;6.47;;;10.50;98.30;;;;;;5009849;28;20082;-80
2021/09/22 00:41:12;;;;;;;8.93;7.18;;;10.50;98.30;;;;;;5009765;28;20050;-79
2021/09/22 00:43:38;;;;;;;8.68;7.15;;;10.50;98.40;;;;;;5009064;28;20045;-80
2021/09/22 00:46:06;;;;;;;8.52;7.10;;;10.60;98.40;;;;;;4992030;28;20027;-80
2021/09/22 00:48:33;;;;;;;7.90;6.93;;;10.60;98.40;;;;;;5009024;28;20034;-79
2021/09/22 00:51:05;;;;;;;7.47;6.53;;;10.60;98.40;;;;;;5008843;28;20495;-79
2021/09/22 00:53:36;;;;;;;8.68;7.20;;;10.70;98.50;;;;;;4998804;28;20527;-80
2021/09/22 00:56:03;;;;;;;7.55;5.97;;;10.80;98.40;;;;;;5003458;28;20093;-79
2021/09/22 00:58:31;;;;;;;6.75;6.07;;;10.70;98.20;;;;;;4996428;28;20015;-79
2021/09/22 01:00:56;;;;;;;8.73;7.45;;;10.80;98.20;;;;;;4997254;28;20134;-78
2021/09/22 01:03:24;;;;;;;9.05;7.40;;;10.80;98.00;;;;;;4999396;28;20046;-78
2021/09/22 01:05:53;;;;;;;8.40;7.53;;;10.80;98.00;;;;;;4980466;28;20058;-80
2021/09/22 01:08:20;;;;;;;12.00;9.10;;;10.70;98.10;;;;;;4982590;28;20588;-78
2021/09/22 01:10:46;;;;;;;12.93;9.02;;;10.70;98.20;;;;;;4987209;28;20027;-79
2021/09/22 01:13:13;;;;;;;10.13;8.68;;;10.70;98.30;;;;;;4988065;28;20057;-80
2021/09/22 01:15:42;;;;;;;9.25;7.68;;;10.70;98.40;;;;;;4989090;28;20099;-79
2021/09/22 01:18:12;;;;;;;10.40;7.75;;;10.70;98.50;;;;;;4988351;28;20026;-79
2021/09/22 01:20:38;;;;;;;8.75;7.15;;;10.70;98.60;;;;;;4968219;28;20395;-78
2021/09/22 01:23:08;;;;;;;8.65;7.38;;;10.70;98.60;;;;;;4985723;28;20031;-79
2021/09/22 01:25:41;;;;;;;8.15;6.38;;;10.70;98.60;;;;;;4995720;28;20018;-78
2021/09/22 01:28:07;;;;;;;7.82;6.60;;;10.70;98.80;;;;;;4987952;28;20030;-78
2021/09/22 01:30:33;;;;;;;9.10;7.47;;;10.60;98.80;;;;;;4993046;28;20451;-80
2021/09/22 01:33:04;;;;;;;9.23;7.75;;;10.50;98.80;;;;;;4987822;28;20023;-79
2021/09/22 01:35:39;;;;;;;10.20;8.25;;;10.50;98.90;;;;;;4990471;28;20117;-80
2021/09/22 01:38:11;;;;;;;9.50;7.85;;;10.40;98.90;;;;;;5006714;28;20399;-80
2021/09/22 01:40:37;;;;;;;9.65;8.65;;;10.40;98.90;;;;;;5008122;28;20034;-79
2021/09/22 01:43:04;;;;;;;8.50;7.38;;;10.30;99.10;;;;;;5007635;28;20037;-79
2021/09/22 01:45:31;;;;;;;9.02;7.90;;;10.30;99.30;;;;;;5000910;28;20019;-80
2021/09/22 01:47:56;;;;;;;7.38;6.53;;;10.20;99.30;;;;;;4988167;28;20019;-80
2021/09/22 01:50:22;;;;;;;7.25;6.50;;;10.20;99.40;;;;;;4988529;28;20033;-79
2021/09/22 01:52:52;;;;;;;8.93;6.85;;;10.20;99.80;;;;;;4988988;28;20381;-79
2021/09/22 01:55:23;;;;;;;9.80;7.50;;;10.30;99.90;;;;;;5001036;28;20038;-78
2021/09/22 01:57:49;;;;;;;8.32;6.95;;;10.30;99.90;;;;;;5006217;28;20030;-79
2021/09/22 02:00:16;;;;;;;8.52;6.82;;;10.20;99.90;;;;;;4993120;28;20030;-78
2021/09/22 02:02:42;;;;;;;9.88;7.10;;;10.20;99.90;;;;;;4988635;28;20030;-79
2021/09/22 02:05:08;;;;;;;7.03;6.32;;;10.20;99.90;;;;;;5006661;28;20023;-79
2021/09/22 02:07:35;;;;;;;7.60;6.43;;;10.20;99.90;;;;;;5004926;28;20027;-78
2021/09/22 02:10:01;;;;;;;6.82;6.13;;;10.20;99.90;;;;;;5004336;28;20027;-79
2021/09/22 02:12:28;;;;;;;7.88;6.65;;;10.20;99.90;;;;;;4983872;28;20030;-77
2021/09/22 02:14:54;;;;;;;10.07;7.60;;;10.20;99.90;;;;;;4998697;28;20054;-77
2021/09/22 02:17:20;;;;;;;6.70;6.10;;;10.20;99.90;;;;;;4984726;28;20026;-79
2021/09/22 02:19:46;;;;;;;7.20;6.32;;;10.20;99.90;;;;;;5003145;28;20053;-78
2021/09/22 02:22:12;;;;;;;7.30;6.55;;;10.20;99.90;;;;;;4987150;28;20071;-80
2021/09/22 02:24:42;;;;;;;7.15;6.45;;;10.10;99.90;;;;;;4995979;28;20065;-79
2021/09/22 02:27:09;;;;;;;6.85;5.85;;;10.10;99.90;;;;;;4991032;28;20031;-77
2021/09/22 02:29:35;;;;;;;8.45;6.88;;;10.10;99.90;;;;;;4991649;28;20402;-79
2021/09/22 02:32:03;;;;;;;7.28;6.40;;;10.10;99.90;;;;;;5009343;28;20030;-79
2021/09/22 02:34:29;;;;;;;7.85;6.50;;;10.10;99.90;;;;;;4992201;28;20023;-78
2021/09/22 02:36:56;;;;;;;7.45;6.68;;;10.10;99.90;;;;;;5009283;28;20034;-79
2021/09/22 02:39:22;;;;;;;10.55;7.78;;;10.10;99.90;;;;;;5009119;28;20030;-79
2021/09/22 02:41:48;;;;;;;13.82;10.00;;;10.00;99.90;;;;;;5009567;28;20026;-79
2021/09/22 02:44:14;;;;;;;15.20;11.23;;;10.00;99.90;;;;;;5009500;28;20030;-79
2021/09/22 02:46:40;;;;;;;15.63;12.98;;;10.00;99.90;;;;;;5009520;28;20038;-80
2021/09/22 02:49:06;;;;;;;14.93;11.77;;;9.90;99.90;;;;;;4990999;28;20038;-79
2021/09/22 02:51:32;;;;;;;14.88;12.48;;;9.80;99.90;;;;;;4987441;28;20022;-79
2021/09/22 02:53:58;;;;;;;15.10;11.82;;;9.70;99.90;;;;;;4978195;28;20192;-80
2021/09/22 02:56:23;;;;;;;15.93;12.07;;;9.50;99.90;;;;;;4989163;28;20396;-80
2021/09/22 02:58:49;;;;;;;16.60;12.73;;;9.40;99.90;;;;;;4975924;28;20045;-80
2021/09/22 03:01:15;;;;;;;16.83;12.68;;;9.30;99.90;;;;;;4984187;28;20030;-80
2021/09/22 03:03:41;;;;;;;16.80;13.15;;;9.30;99.90;;;;;;4989408;28;20093;-80
2021/09/22 03:06:06;;;;;;;15.20;11.57;;;9.20;99.90;;;;;;5014856;28;20049;-81
2021/09/22 03:08:32;;;;;;;14.35;10.93;;;9.10;99.90;;;;;;5004026;28;20804;-81
2021/09/22 03:11:03;;;;;;;12.82;10.52;;;9.10;99.90;;;;;;4983707;28;20438;-80
2021/09/22 03:13:29;;;;;;;14.73;10.55;;;9.10;99.90;;;;;;4986564;28;20026;-80
2021/09/22 03:15:54;;;;;;;13.57;10.73;;;9.10;99.90;;;;;;4982842;28;20030;-81
2021/09/22 03:18:20;;;;;;;11.75;9.70;;;9.10;99.90;;;;;;4982074;28;20098;-79
2021/09/22 03:20:47;;;;;;;11.90;9.98;;;9.10;99.90;;;;;;4982252;28;20030;-79
2021/09/22 03:23:13;;;;;;;15.57;11.18;;;9.10;99.90;;;;;;4981202;28;20119;-79
2021/09/22 03:25:38;;;;;;;13.35;10.95;;;9.10;99.90;;;;;;4995725;28;20071;-80
2021/09/22 03:28:04;;;;;;;13.18;10.38;;;9.10;99.90;;;;;;5005400;28;20475;-80
2021/09/22 03:30:30;;;;;;;16.88;10.85;;;9.20;99.90;;;;;;5006976;28;20034;-79
2021/09/22 03:32:56;;;;;;;12.32;9.88;;;9.20;99.90;;;;;;5002699;28;20037;-79
2021/09/22 03:35:21;;;;;;;12.02;9.77;;;9.20;99.90;;;;;;5005145;28;20049;-79
2021/09/22 03:37:47;;;;;;;12.18;9.50;;;9.10;99.90;;;;;;5012507;28;20036;-79
2021/09/22 03:40:14;;;;;;;12.00;9.32;;;9.20;99.90;;;;;;4985606;28;20033;-80
2021/09/22 03:42:40;;;;;;;11.82;9.25;;;9.20;99.90;;;;;;5010632;28;20022;-80
2021/09/22 03:45:06;;;;;;;10.07;8.35;;;9.30;99.90;;;;;;4992539;28;20019;-80
2021/09/22 03:47:31;;;;;;;10.80;8.60;;;9.30;99.90;;;;;;5003843;28;20018;-80
2021/09/22 03:49:58;;;;;;;11.60;9.18;;;9.30;99.90;;;;;;5004581;28;20030;-80
2021/09/22 03:52:24;;;;;;;11.27;8.85;;;9.30;99.90;;;;;;5008406;28;20030;-80
2021/09/22 03:54:49;;;;;;;12.43;8.75;;;9.30;99.90;;;;;;4997761;28;20037;-80
2021/09/22 03:57:15;;;;;;;12.18;9.35;;;9.30;99.90;;;;;;4976637;28;20038;-80
2021/09/22 03:59:42;;;;;;;11.10;8.85;;;9.30;99.90;;;;;;4991223;28;20064;-80
2021/09/22 04:02:08;;;;;;;11.73;9.18;;;9.30;99.90;;;;;;5010989;28;20026;-80
2021/09/22 04:04:34;;;;;;;11.60;8.43;;;9.30;99.90;;;;;;5012297;28;20030;-80
2021/09/22 04:07:00;;;;;;;11.45;9.48;;;9.30;99.90;;;;;;5009653;28;20073;-81
2021/09/22 04:09:26;;;;;;;10.73;8.80;;;9.40;99.90;;;;;;4986718;28;20121;-80
2021/09/22 04:11:52;;;;;;;10.95;8.75;;;9.40;99.90;;;;;;4981824;28;20026;-81
2021/09/22 04:14:17;;;;;;;11.18;8.70;;;9.40;99.90;;;;;;4981167;28;20113;-79
2021/09/22 04:16:43;;;;;;;12.57;8.95;;;9.40;99.90;;;;;;4963373;28;20716;-80
2021/09/22 04:19:09;;;;;;;9.73;8.18;;;9.40;99.90;;;;;;4970250;28;20027;-78
2021/09/22 04:21:35;;;;;;;9.77;7.78;;;9.40;99.90;;;;;;4968952;28;20042;-78
2021/09/22 04:24:01;;;;;;;9.98;7.97;;;9.30;99.90;;;;;;4970459;28;20042;-79
2021/09/22 04:26:27;;;;;;;9.05;7.70;;;9.30;99.90;;;;;;4978455;28;20531;-78
2021/09/22 04:28:53;;;;;;;9.20;7.72;;;9.30;99.90;;;;;;5003475;28;20062;-79
2021/09/22 04:31:18;;;;;;;9.77;8.20;;;9.30;99.90;;;;;;4999373;28;20049;-79
2021/09/22 04:33:44;;;;;;;11.15;8.25;;;9.30;99.90;;;;;;4997669;28;20053;-79
2021/09/22 04:36:11;;;;;;;10.30;8.88;;;9.30;99.90;;;;;;5005284;28;20058;-79
2021/09/22 04:38:37;;;;;;;10.38;8.25;;;9.30;99.90;;;;;;5002487;28;20045;-79
2021/09/22 04:41:03;;;;;;;11.07;8.57;;;9.30;99.90;;;;;;4984310;28;20026;-78
2021/09/22 04:43:28;;;;;;;10.00;8.40;;;9.30;99.90;;;;;;4989964;28;20030;-79
2021/09/22 04:45:54;;;;;;;9.23;7.60;;;9.30;99.90;;;;;;4989965;28;20114;-79
2021/09/22 04:48:20;;;;;;;8.95;7.47;;;9.30;99.90;;;;;;5009482;28;20084;-79
2021/09/22 04:50:46;;;;;;;10.27;8.75;;;9.30;99.90;;;;;;5010732;28;20018;-80
2021/09/22 04:53:11;;;;;;;10.30;8.32;;;9.30;99.90;;;;;;5004953;28;20018;-79
2021/09/22 04:55:37;;;;;;;9.32;7.93;;;9.30;99.90;;;;;;4986640;28;20038;-79
2021/09/22 04:58:03;;;;;;;11.82;9.57;;;9.30;99.90;;;;;;5000202;28;20526;-78
2021/09/22 05:00:29;;;;;;;14.43;10.25;;;9.20;99.90;;;;;;4998541;28;20056;-78
2021/09/22 05:02:55;;;;;;;12.43;10.55;;;9.30;99.90;;;;;;4989609;28;20033;-81
2021/09/22 05:05:20;;;;;;;11.95;9.35;;;9.20;99.90;;;;;;5006591;28;20038;-80
2021/09/22 05:07:46;;;;;;;12.70;9.18;;;9.20;99.90;;;;;;4992674;28;20038;-79
2021/09/22 05:10:12;;;;;;;12.40;9.15;;;9.20;99.90;;;;;;5010381;28;20034;-80
2021/09/22 05:12:37;;;;;;;10.88;8.88;;;9.20;99.90;;;;;;5011151;28;20042;-80
2021/09/22 05:15:05;;;;;;;10.77;9.15;;;9.20;99.90;;;;;;5012297;28;20026;-80
2021/09/22 05:17:31;;;;;;;10.35;8.18;;;9.30;99.90;;;;;;4996693;28;20038;-80
2021/09/22 05:19:56;;;;;;;11.90;8.68;;;9.30;99.90;;;;;;5011664;28;20045;-79
2021/09/22 05:22:22;;;;;;;11.40;8.27;;;9.40;99.90;;;;;;4998483;28;20352;-79
2021/09/22 05:24:48;;;;;;;10.75;8.85;;;9.40;99.90;;;;;;4991713;28;20023;-81
2021/09/22 05:27:14;;;;;;;12.25;8.65;;;9.50;99.90;;;;;;4997311;28;20026;-80
2021/09/22 05:29:43;;;;;;;10.15;8.70;;;9.50;99.90;;;;;;5008066;28;20052;-79
2021/09/22 05:32:09;;;;;;;12.65;9.18;;;9.60;99.90;;;;;;4998704;28;20065;-79
2021/09/22 05:34:35;;;;;;;20.40;11.57;;;9.60;99.90;;;;;;4994018;28;20122;-78
2021/09/22 05:37:00;;;;;;;15.60;10.90;;;9.60;99.90;;;;;;5010345;28;20190;-79
2021/09/22 05:39:26;;;;;;;15.35;10.27;;;9.70;99.90;;;;;;4991908;28;20027;-79
2021/09/22 05:41:52;;;;;;;14.65;10.60;;;9.70;99.90;;;;;;4985338;28;20027;-78
2021/09/22 05:44:18;;;;;;;12.52;10.20;;;9.70;99.90;;;;;;4987397;28;20049;-78
2021/09/22 05:46:43;;;;;;;11.77;9.00;;;9.80;99.90;;;;;;5005510;28;20022;-79
2021/09/22 05:49:09;;;;;;;12.13;8.90;;;9.90;99.90;;;;;;5009415;28;20034;-77
2021/09/22 05:51:35;;;;;;;11.32;8.90;;;9.90;99.90;;;;;;5001563;28;20466;-78
2021/09/22 05:54:01;;;;;;;9.45;8.27;;;10.10;99.90;;;;;;4997926;28;20486;-79
2021/09/22 05:56:26;;;;;;;9.20;7.63;;;10.20;99.90;;;;;;5000182;28;20022;-79
2021/09/22 05:58:54;;;;;;;9.88;8.32;;;10.30;99.90;;;;;;4998667;28;20058;-79
2021/09/22 06:01:20;;;;;;;10.73;8.38;;;10.40;99.90;;;;;;4975377;28;20464;-79
2021/09/22 06:03:46;;;;;;;8.65;6.97;;;10.50;99.90;;;;;;4989989;28;20086;-79
2021/09/22 06:06:14;;;;;;;9.48;7.70;;;10.60;99.90;;;;;;4995709;28;20034;-79
2021/09/22 06:08:40;;;;;;;8.15;7.22;;;10.80;99.90;;;;;;4979566;28;20023;-80
2021/09/22 06:11:06;;;;;;;9.20;6.80;;;10.90;99.90;;;;;;4979630;28;20051;-80
2021/09/22 06:13:32;;;;;;;8.82;7.00;;;11.10;99.90;;;;;;4994416;28;20023;-79
2021/09/22 06:15:57;;;;;;;8.85;7.18;;;11.30;99.90;;;;;;4977184;28;20031;-80
2021/09/22 06:18:23;;;;;;;9.10;8.05;;;11.40;99.90;;;;;;4994416;28;20026;-79
2021/09/22 06:20:49;;;;;;;9.18;7.15;;;11.50;99.90;;;;;;4977410;28;20101;-81
2021/09/22 06:23:15;;;;;;;12.43;8.88;;;11.60;99.90;;;;;;4989461;28;20027;-79
2021/09/22 06:25:41;;;;;;;11.32;8.88;;;11.70;99.90;;;;;;4999379;28;20031;-82
2021/09/22 06:28:07;;;;;;;9.93;8.32;;;11.80;99.60;;;;;;4995632;28;20023;-80
2021/09/22 06:30:33;;;;;;;12.07;9.45;;;11.90;99.10;;;;;;5009284;28;20018;-80
2021/09/22 06:32:59;;;;;;;12.52;9.15;;;12.00;98.40;;;;;;4994997;28;20022;-80
2021/09/22 06:35:25;;;;;;;14.55;10.48;;;12.00;97.20;;;;;;5012301;28;20048;-80
2021/09/22 06:37:52;;;;;;;10.82;8.38;;;12.10;96.60;;;;;;5012444;28;20045;-81
2021/09/22 06:40:19;;;;;;;9.60;8.02;;;12.20;95.90;;;;;;5011554;28;20019;-80
2021/09/22 06:42:46;;;;;;;7.57;6.75;;;12.30;95.20;;;;;;5013356;28;20041;-80
2021/09/22 06:45:13;;;;;;;8.23;7.38;;;12.40;94.30;;;;;;4998724;28;20018;-80
2021/09/22 06:47:39;;;;;;;14.82;11.13;;;12.40;93.50;;;;;;4997873;28;20032;-80
2021/09/22 06:50:05;;;;;;;15.10;10.57;;;12.40;92.30;;;;;;5020111;28;20129;-80
2021/09/22 06:52:32;;;;;;;12.85;10.80;;;12.40;91.10;;;;;;5017991;28;20041;-80
2021/09/22 06:55:01;;;;;;;11.23;9.45;;;12.40;91.00;;;;;;4999210;28;20145;-80
2021/09/22 06:57:27;;;;;;;10.63;8.10;;;12.50;91.10;;;;;;5000789;28;20034;-81
2021/09/22 06:59:52;;;;;;;9.63;8.45;;;12.60;91.00;;;;;;5012364;28;20057;-81
2021/09/22 07:02:18;;;;;;;18.50;10.18;;;12.70;90.80;;;;;;5017180;28;20046;-81
2021/09/22 07:04:44;;;;;;;16.35;11.18;;;12.80;89.90;;;;;;5015985;28;20030;-80
2021/09/22 07:07:10;;;;;;;11.85;10.38;;;13.00;87.40;;;;;;5015224;28;20097;-80
2021/09/22 07:09:36;;;;;;;14.73;11.35;;;13.00;87.40;;;;;;5015784;28;20042;-80
2021/09/22 07:12:02;;;;;;;11.82;9.98;;;13.10;86.90;;;;;;4998786;28;20073;-80
2021/09/22 07:14:28;;;;;;;13.35;9.13;;;13.10;85.90;;;;;;5002335;28;20530;-82
2021/09/22 07:16:54;;;;;;;14.45;9.75;;;13.20;85.30;;;;;;5018544;28;20006;-81
2021/09/22 07:19:20;;;;;;;12.40;10.60;;;13.10;84.50;;;;;;5015955;28;20041;-81
2021/09/22 07:21:46;;;;;;;9.77;8.77;;;13.00;83.70;;;;;;5000331;28;20041;-81
2021/09/22 07:24:12;;;;;;;16.52;10.32;;;13.10;84.10;;;;;;4996124;28;20488;-81
2021/09/22 07:26:38;;;;;;;11.50;9.05;;;13.30;81.00;;;;;;4995700;28;20073;-82
2021/09/22 07:29:07;;;;;;;14.20;9.40;;;13.40;79.00;;;;;;4993216;28;20030;-83
2021/09/22 07:31:34;;;;;;;13.05;10.88;;;13.50;78.60;;;;;;4991287;28;20074;-81
2021/09/22 07:33:59;;;;;;;12.88;8.88;;;13.60;78.30;;;;;;5004453;28;20471;-84
2021/09/22 07:36:26;;;;;;;14.70;9.95;;;13.70;76.90;;;;;;4986217;28;20045;-80
2021/09/22 07:38:52;;;;;;;10.63;8.35;;;13.80;75.40;;;;;;5001319;28;20030;-81
2021/09/22 07:41:18;;;;;;;9.48;6.90;;;13.80;74.60;;;;;;4987972;28;20077;-81
2021/09/22 07:43:43;;;;;;;8.60;7.05;;;14.00;74.90;;;;;;4971105;28;20049;-81
2021/09/22 07:46:09;;;;;;;14.07;9.20;;;14.20;74.30;;;;;;4988004;28;20046;-81
2021/09/22 07:48:35;;;;;;;10.05;7.78;;;14.30;70.90;;;;;;4969292;28;20476;-80
2021/09/22 07:51:02;;;;;;;9.15;7.20;;;14.30;70.90;;;;;;4969057;28;20082;-80
2021/09/22 07:53:28;;;;;;;7.55;6.65;;;14.50;70.60;;;;;;4990549;28;20026;-81
2021/09/22 07:55:53;;;;;;;8.68;6.88;;;14.50;68.90;;;;;;4985792;28;20077;-81
2021/09/22 07:58:19;;;;;;;6.97;5.90;;;14.60;68.50;;;;;;5004431;28;20041;-81
2021/09/22 08:00:46;;;;;;;6.35;5.72;;;14.60;68.60;;;;;;5004741;28;20110;-81
2021/09/22 08:03:12;;;;;;;9.02;7.65;;;14.70;67.70;;;;;;4989528;28;20034;-79
2021/09/22 08:05:40;;;;;;;9.35;7.45;;;14.80;65.90;;;;;;4989903;28;20026;-83
2021/09/22 08:08:07;;;;;;;9.93;7.88;;;14.70;66.40;;;;;;4989829;28;20023;-80
2021/09/22 08:10:35;;;;;;;12.15;7.15;;;14.80;65.70;;;;;;4989355;28;20046;-81
2021/09/22 08:13:01;;;;;;;10.07;8.00;;;14.90;65.60;;;;;;4987453;28;20061;-82
2021/09/22 08:15:27;;;;;;;10.10;6.95;;;15.00;64.90;;;;;;5008404;28;20030;-81
2021/09/22 08:17:53;;;;;;;6.00;5.40;;;15.00;65.40;;;;;;5009502;28;20034;-81
2021/09/22 08:20:18;;;;;;;8.35;5.90;;;15.10;65.20;;;;;;4991249;28;20153;-82
2021/09/22 08:22:46;;;;;;;7.93;7.13;;;15.20;64.50;;;;;;5002675;28;20085;-81
2021/09/22 08:25:12;;;;;;;8.70;7.80;;;15.30;62.30;;;;;;4980886;28;20030;-81
2021/09/22 08:27:38;;;;;;;9.82;6.53;;;15.30;62.30;;;;;;4994853;28;20074;-80
2021/09/22 08:30:06;;;;;;;9.32;6.45;;;15.40;63.10;;;;;;4988775;28;20019;-81
2021/09/22 08:32:32;;;;;;;8.52;6.38;;;15.60;62.40;;;;;;4966875;28;20066;-82
2021/09/22 08:34:58;;;;;;;6.88;5.97;;;15.80;61.40;;;;;;4986684;28;20073;-80
2021/09/22 08:37:24;;;;;;;6.88;5.88;;;16.00;60.30;;;;;;4996821;28;20099;-81
2021/09/22 08:39:50;;;;;;;9.65;6.00;;;16.30;58.30;;;;;;4974892;28;20460;-83
2021/09/22 08:42:19;;;;;;;6.50;5.60;;;16.60;57.60;;;;;;5004782;28;20038;-81
2021/09/22 08:44:45;;;;;;;6.97;5.35;;;16.90;56.70;;;;;;5002806;28;20061;-81
2021/09/22 08:47:11;;;;;;;7.72;6.22;;;17.00;55.70;;;;;;4990489;28;20027;-80
2021/09/22 08:49:42;;;;;;;6.65;5.63;;;16.90;55.00;;;;;;5003439;28;20360;-81
2021/09/22 08:52:09;;;;;;;5.47;4.97;;;16.80;55.50;;;;;;5003326;28;20018;-82
2021/09/22 08:54:35;;;;;;;6.68;5.65;;;16.90;55.90;;;;;;5025484;23;20048;-79
2021/09/22 08:57:03;;;;;;;6.85;4.82;;;17.00;55.20;;;;;;5035445;28;20033;-79
2021/09/22 08:59:28;;;;;;;5.57;4.53;;;17.10;55.90;;;;;;5028350;28;20374;-80
2021/09/22 09:02:12;;;;;;;8.25;6.53;;;17.50;56.10;;;;;;5034295;28;20022;-79
2021/09/22 09:04:40;;;;;;;6.15;4.57;;;17.80;53.60;;;;;;5019997;28;20041;-81
2021/09/22 09:07:07;;;;;;;7.20;5.15;;;18.10;53.70;;;;;;5006975;28;20044;-81
2021/09/22 09:09:38;;;;;;;7.38;5.32;;;18.60;52.70;;;;;;5018840;28;20266;-82
2021/09/22 09:12:23;;;;;;;5.80;4.53;;;18.80;52.10;;;;;;4989190;28;20050;-82
2021/09/22 09:14:50;;;;;;;10.10;6.88;;;19.10;51.90;;;;;;5004166;28;20542;-81
2021/09/22 09:17:20;;;;;;;8.02;5.63;;;19.10;50.70;;;;;;5003380;28;20097;-81
2021/09/22 09:19:47;;;;;;;6.68;5.53;;;18.80;51.60;;;;;;5003638;28;20018;-81
2021/09/22 09:22:13;;;;;;;6.68;4.50;;;18.70;51.70;;;;;;5003254;28;20022;-81
2021/09/22 09:24:44;;;;;;;7.30;3.33;;;18.80;50.70;;;;;;5004407;28;20037;-81
2021/09/22 09:27:30;;;;;;;3.88;2.92;;;18.80;51.20;;;;;;5002952;28;20614;-81
2021/09/22 09:29:57;;;;;;;7.53;4.70;;;18.60;52.10;;;;;;5017210;28;20046;-82
2021/09/22 09:32:26;;;;;;;6.00;5.38;;;18.60;51.90;;;;;;5018631;28;20029;-81
2021/09/22 09:35:14;;;;;;;4.47;3.78;;;18.50;52.30;;;;;;5001377;28;20368;-82
2021/09/22 09:37:48;;;;;;;8.07;4.50;;;18.20;53.50;;;;;;4989780;28;20041;-80
2021/09/22 09:40:29;;;;;;;7.80;4.53;;;18.40;53.00;;;;;;5021088;28;20026;-81
2021/09/22 09:43:00;;;;;;;6.25;4.60;;;18.40;53.10;;;;;;5016989;28;20073;-82
2021/09/22 09:45:35;;;;;;;5.30;4.20;;;18.40;53.50;;;;;;5004859;28;20018;-82
2021/09/22 09:48:17;;;;;;;6.70;3.90;;;18.70;53.20;;;;;;5001017;28;20026;-81
2021/09/22 09:51:01;;;;;;;4.10;3.70;;;18.80;51.80;;;;;;5001339;28;20029;-82
2021/09/22 09:53:31;;;;;;;3.80;3.10;;;18.40;53.30;;;;;;5002883;28;20084;-82
2021/09/22 09:55:59;;;;;;;2.75;2.47;;;18.30;54.40;;;;;;5020353;28;20510;-81
2021/09/22 09:58:47;;;;;;;2.63;2.42;;;18.00;54.20;;;;;;5017746;28;20045;-81
2021/09/22 10:01:12;;;;;;;4.78;2.80;;;18.00;54.50;;;;;;5004459;28;20362;-82
2021/09/22 10:03:38;;;;;;;2.75;2.55;;;17.90;54.10;;;;;;5016336;28;20084;-81
2021/09/22 10:06:06;;;;;;;3.67;2.28;;;18.10;54.40;;;;;;5002170;28;20042;-81
2021/09/22 10:08:31;;;;;;;3.65;3.13;;;18.50;54.50;;;;;;5000646;28;20030;-81
2021/09/22 10:11:02;;;;;;;4.30;3.35;;;19.20;53.10;;;;;;5004150;28;20054;-81
2021/09/22 10:13:30;;;;;;;4.70;3.47;;;19.80;52.00;;;;;;4984956;28;20372;-81
2021/09/22 10:15:56;;;;;;;6.80;4.10;;;20.20;51.30;;;;;;4996940;28;20482;-82
2021/09/22 10:18:21;;;;;;;4.30;3.90;;;20.10;51.10;;;;;;5002971;28;20121;-82
2021/09/22 10:20:48;;;;;;;4.45;3.90;;;19.60;51.90;;;;;;5021249;28;20052;-82
2021/09/22 10:23:16;;;;;;;7.28;4.82;;;18.90;53.30;;;;;;5018413;28;20034;-81
2021/09/22 10:25:42;;;;;;;3.85;3.42;;;18.40;54.10;;;;;;5003265;28;20027;-81
2021/09/22 10:28:08;;;;;;;3.40;3.10;;;18.30;55.80;;;;;;4994901;28;20033;-81
2021/09/22 10:30:45;;;;;;;3.25;2.90;;;18.70;54.90;;;;;;5014690;28;20022;-82
2021/09/22 10:33:29;;;;;;;4.72;3.38;;;18.90;55.00;;;;;;5010463;28;20069;-81
2021/09/22 10:35:57;;;;;;;3.72;3.10;;;19.10;54.90;;;;;;5011865;28;20036;-82
2021/09/22 10:38:29;;;;;;;3.35;3.03;;;18.90;55.30;;;;;;4995511;28;20053;-81
2021/09/22 10:40:56;;;;;;;4.35;2.78;;;18.80;56.90;;;;;;5020730;28;20030;-81
2021/09/22 10:43:24;;;;;;;3.60;3.20;;;18.80;57.30;;;;;;5019944;28;20025;-81
2021/09/22 10:46:13;;;;;;;5.22;3.88;;;18.50;57.60;;;;;;5019725;28;20108;-81
2021/09/22 10:48:51;;;;;;;3.80;2.95;;;18.10;58.60;;;;;;5019164;28;20478;-82
2021/09/22 10:51:28;;;;;;;3.83;3.50;;;18.20;59.30;;;;;;5020126;28;20052;-82
2021/09/22 10:54:15;;;;;;;7.75;4.13;;;18.00;58.40;;;;;;5024221;28;20048;-83
2021/09/22 10:57:01;;;;;;;7.82;3.60;;;17.70;59.30;;;;;;5003265;28;20044;-82
2021/09/22 10:59:39;;;;;;;5.93;3.83;;;17.30;60.30;;;;;;5011953;28;20532;-81
2021/09/22 11:02:08;;;;;;;3.47;2.88;;;17.40;60.40;;;;;;5004560;28;20030;-82
2021/09/22 11:05:00;;;;;;;3.85;2.60;;;17.70;60.40;;;;;;4999465;28;20081;-82
2021/09/22 11:08:02;;;;;;;5.20;3.45;;;18.10;59.30;;;;;;5011724;28;20023;-82
2021/09/22 11:10:46;;;;;;;6.97;4.05;;;18.10;58.80;;;;;;5004140;28;20026;-82
2021/09/22 11:13:23;;;;;;;9.48;4.28;;;18.20;59.00;;;;;;5004643;28;20026;-82
2021/09/22 11:16:07;;;;;;;5.05;3.63;;;18.30;59.20;;;;;;5004595;28;20518;-82
2021/09/22 11:18:33;;;;;;;4.90;3.40;;;18.00;59.90;;;;;;5009821;28;20121;-82
2021/09/22 11:21:01;;;;;;;4.68;3.95;;;17.70;60.30;;;;;;5003910;28;20081;-82
2021/09/22 11:23:28;;;;;;;2.45;2.25;;;17.60;60.80;;;;;;5004696;28;20027;-80
2021/09/22 11:26:02;;;;;;;4.60;3.33;;;18.20;61.60;;;;;;5004585;28;20023;-81
2021/09/22 11:28:28;;;;;;;4.72;3.22;;;19.10;58.80;;;;;;5012377;28;20011;-81
2021/09/22 11:30:54;;;;;;;3.42;2.60;;;19.30;57.20;;;;;;5000585;28;20144;-82
2021/09/22 11:33:22;;;;;;;5.32;3.45;;;19.10;58.30;;;;;;5016887;28;20022;-81
2021/09/22 11:35:48;;;;;;;3.45;2.88;;;18.90;58.40;;;;;;5025080;28;20044;-82
2021/09/22 11:38:14;;;;;;;8.05;3.63;;;18.50;59.90;;;;;;5024628;28;20521;-82
2021/09/22 11:40:40;;;;;;;6.05;4.50;;;18.30;60.60;;;;;;5023068;28;20022;-82
2021/09/22 11:43:12;;;;;;;6.32;3.88;;;18.00;62.10;;;;;;5006356;28;20029;-81
2021/09/22 11:45:59;;;;;;;4.10;3.38;;;17.70;62.50;;;;;;5006685;28;20104;-81
2021/09/22 11:48:32;;;;;;;6.97;4.25;;;17.60;63.30;;;;;;5003127;28;20029;-81
2021/09/22 11:50:59;;;;;;;6.93;4.10;;;17.80;63.20;;;;;;5017639;28;20437;-81
2021/09/22 11:53:29;;;;;;;3.83;3.17;;;17.80;62.70;;;;;;5012702;28;20018;-81
2021/09/22 11:55:56;;;;;;;4.72;3.45;;;17.80;63.30;;;;;;5007690;28;20034;-81
2021/09/22 11:58:41;;;;;;;4.88;4.25;;;17.90;62.70;;;;;;5015029;28;20101;-81
2021/09/22 12:01:08;;;;;;;4.35;3.95;;;17.90;62.00;;;;;;5017455;28;20110;-81
2021/09/22 12:03:36;;;;;;;7.05;4.32;;;18.00;62.30;;;;;;5012610;28;20085;-82
2021/09/22 12:06:08;;;;;;;4.97;3.50;;;18.00;61.80;;;;;;5019745;28;20096;-81
2021/09/22 12:08:38;;;;;;;6.55;3.60;;;18.00;62.20;;;;;;5026016;28;20117;-81
2021/09/22 12:11:05;;;;;;;9.38;3.85;;;18.00;62.00;;;;;;5025713;28;20053;-81
2021/09/22 12:13:42;;;;;;;6.68;2.70;;;17.80;62.50;;;;;;5022236;28;20074;-82
2021/09/22 12:16:08;;;;;;;8.15;3.40;;;17.80;62.90;;;;;;5005900;28;20077;-81
2021/09/22 12:18:35;;;;;;;5.85;2.70;;;17.80;62.90;;;;;;5022292;28;20072;-81
2021/09/22 12:21:01;;;;;;;3.13;2.60;;;17.80;62.10;;;;;;5019159;28;20045;-80
2021/09/22 12:23:30;;;;;;;2.67;2.22;;;17.80;63.20;;;;;;5015288;28;20022;-81
2021/09/22 12:26:16;;;;;;;2.35;1.77;;;17.60;62.00;;;;;;5005016;28;20018;-81
2021/09/22 12:28:42;;;;;;;2.72;1.70;;;17.50;62.20;;;;;;5014035;28;20019;-82
2021/09/22 12:31:20;;;;;;;4.57;3.03;;;17.60;62.10;;;;;;5016938;28;20022;-81
2021/09/22 12:33:47;;;;;;;5.05;4.55;;;17.60;62.70;;;;;;5010400;28;20108;-82
2021/09/22 12:36:16;;;;;;;5.55;5.03;;;17.50;63.90;;;;;;4999498;28;20093;-81
2021/09/22 12:38:51;;;;;;;7.30;3.97;;;17.50;64.30;;;;;;4967673;28;20038;-81
2021/09/22 12:41:19;;;;;;;4.05;3.15;;;17.50;64.90;;;;;;4992277;28;20022;-81
2021/09/22 12:43:47;;;;;;;4.65;3.22;;;17.50;65.40;;;;;;5004310;28;20022;-81
2021/09/22 12:46:16;;;;;;;4.25;2.90;;;17.50;64.80;;;;;;5003068;28;20034;-81
2021/09/22 12:48:42;;;;;;;4.50;3.33;;;17.60;65.20;;;;;;5003433;28;20150;-82
2021/09/22 12:51:17;;;;;;;3.05;2.55;;;17.70;64.40;;;;;;5000956;28;20026;-82